Time;durP1;ratioP1;P1;durP2;ratioP2;P2;SDS_P1;SDS_P2;PMS_P1;PMS_P2;Temp;Humidity;BMP_temperature;BMP_pressure;BME280_temperature;BME280_humidity;BME280_pressure;Samples;Min_cycle;Max_cycle;Signal;HPM_P1;HPM_P2
2022/04/04 00:01:25;;;;;;;11.00;7.40;;;;;;;0.21;87.88;101797.13;5218758;28;20512;-75
2022/04/04 00:03:56;;;;;;;10.03;7.37;;;;;;;0.13;87.69;101802.78;5219375;28;20282;-77
2022/04/04 00:06:30;;;;;;;11.53;7.43;;;;;;;0.13;87.70;101787.41;5219032;28;20048;-74
2022/04/04 00:09:03;;;;;;;14.02;7.63;;;;;;;0.12;87.74;101784.78;5217858;28;20092;-75
2022/04/04 00:11:34;;;;;;;11.10;7.03;;;;;;;0.10;87.76;101791.53;5218123;28;20030;-76
2022/04/04 00:14:06;;;;;;;13.93;8.17;;;;;;;0.12;88.03;101788.19;5218609;28;20037;-75
2022/04/04 00:16:37;;;;;;;13.40;8.10;;;;;;;0.09;87.81;101779.50;5218631;28;20018;-75
2022/04/04 00:19:08;;;;;;;14.37;7.93;;;;;;;0.11;88.19;101783.00;5218777;28;20052;-76
2022/04/04 00:21:40;;;;;;;12.30;7.87;;;;;;;0.10;88.19;101776.13;5218676;28;20030;-75
2022/04/04 00:24:11;;;;;;;8.33;6.70;;;;;;;0.08;88.09;101772.59;5218452;28;20026;-75
2022/04/04 00:26:42;;;;;;;11.67;7.37;;;;;;;0.09;88.53;101764.97;5218402;28;20144;-77
2022/04/04 00:29:14;;;;;;;11.90;7.93;;;;;;;0.12;88.22;101766.81;5218624;28;20025;-75
2022/04/04 00:31:45;;;;;;;14.93;7.60;;;;;;;0.09;88.18;101764.13;5218369;28;20048;-76
2022/04/04 00:34:17;;;;;;;10.80;7.37;;;;;;;0.09;88.09;101759.00;5217955;28;20030;-75
2022/04/04 00:36:49;;;;;;;10.10;7.65;;;;;;;0.12;88.17;101752.31;5217842;28;20041;-75
2022/04/04 00:39:20;;;;;;;13.00;8.30;;;;;;;0.15;87.93;101754.16;5217599;28;20777;-75
2022/04/04 00:41:52;;;;;;;15.53;8.57;;;;;;;0.15;87.75;101752.44;5218047;28;20056;-74
2022/04/04 00:44:25;;;;;;;12.67;7.47;;;;;;;0.16;87.82;101751.66;5218978;28;20073;-74
2022/04/04 00:46:57;;;;;;;15.57;7.80;;;;;;;0.14;87.39;101748.13;5223660;28;20493;-75
2022/04/04 00:49:28;;;;;;;11.88;7.75;;;;;;;0.11;87.83;101737.75;5222689;28;20034;-76
2022/04/04 00:52:00;;;;;;;9.47;7.27;;;;;;;0.09;87.57;101741.03;5217925;28;20041;-76
2022/04/04 00:54:32;;;;;;;15.73;7.87;;;;;;;0.12;87.74;101736.06;5217839;28;20029;-75
2022/04/04 00:57:04;;;;;;;10.65;7.88;;;;;;;0.07;87.42;101730.72;5217298;28;20553;-76
2022/04/04 00:59:36;;;;;;;16.10;8.93;;;;;;;0.04;87.75;101728.00;5199414;28;20108;-75
2022/04/04 01:02:07;;;;;;;14.23;8.75;;;;;;;0.02;87.60;101723.59;5217189;28;20030;-75
2022/04/04 01:04:38;;;;;;;9.33;7.80;;;;;;;-0.04;88.01;101726.78;5216543;28;20519;-74
2022/04/04 01:07:10;;;;;;;14.38;9.15;;;;;;;-0.03;88.11;101724.31;5217118;28;20049;-76
2022/04/04 01:09:41;;;;;;;14.80;8.93;;;;;;;-0.02;87.95;101720.03;5217322;28;20026;-75
2022/04/04 01:12:13;;;;;;;13.90;8.93;;;;;;;-0.03;87.83;101718.31;5216701;28;20034;-75
2022/04/04 01:14:48;;;;;;;12.85;8.85;;;;;;;0.01;87.48;101709.06;5216425;28;20030;-76
2022/04/04 01:17:25;;;;;;;14.10;8.80;;;;;;;-0.03;87.52;101700.38;5216241;28;20030;-75
2022/04/04 01:19:56;;;;;;;11.77;8.23;;;;;;;0.03;87.56;101692.91;5217593;28;20341;-75
2022/04/04 01:22:28;;;;;;;9.83;7.90;;;;;;;0.08;87.21;101696.59;5216850;28;20030;-75
2022/04/04 01:25:01;;;;;;;11.13;7.70;;;;;;;0.14;86.59;101686.59;5198158;28;20097;-76
2022/04/04 01:27:32;;;;;;;11.88;8.30;;;;;;;0.13;86.09;101686.50;5216982;28;20026;-76
2022/04/04 01:30:07;;;;;;;12.33;8.80;;;;;;;0.14;85.72;101678.88;5216791;28;20032;-75
2022/04/04 01:32:39;;;;;;;13.85;7.80;;;;;;;0.18;85.90;101677.38;5216482;28;20454;-77
2022/04/04 01:35:11;;;;;;;10.90;8.55;;;;;;;0.16;85.49;101672.16;5216821;28;20029;-75
2022/04/04 01:37:42;;;;;;;10.33;7.93;;;;;;;0.21;85.28;101676.59;5216557;28;20048;-77
2022/04/04 01:40:15;;;;;;;12.07;8.63;;;;;;;0.28;84.63;101669.25;5216865;28;20033;-76
2022/04/04 01:42:50;;;;;;;10.52;7.82;;;;;;;0.33;84.34;101660.06;5216291;28;20141;-76
2022/04/04 01:48:13;;;;;;;12.60;7.97;;;;;;;0.18;84.47;101649.16;5216257;28;20489;-74
2022/04/04 01:50:44;;;;;;;11.80;8.17;;;;;;;0.15;84.83;101642.19;5215477;28;20033;-74
2022/04/04 01:53:29;;;;;;;11.53;8.10;;;;;;;0.10;85.05;101636.00;5216530;28;20022;-75
2022/04/04 01:56:03;;;;;;;12.38;6.88;;;;;;;0.10;84.75;101623.19;5216666;28;20025;-76
2022/04/04 01:58:35;;;;;;;8.90;6.85;;;;;;;0.15;84.43;101628.50;5216140;28;20537;-75
2022/04/04 02:01:34;;;;;;;11.13;8.27;;;;;;;0.13;84.66;101619.84;5216179;28;20114;-75
2022/04/04 02:04:10;;;;;;;10.55;7.10;;;;;;;0.13;84.65;101617.28;5212354;28;20057;-75
2022/04/04 02:06:41;;;;;;;10.40;7.45;;;;;;;0.10;84.67;101615.50;5216308;28;20061;-76
2022/04/04 02:09:13;;;;;;;12.20;7.73;;;;;;;0.16;84.25;101613.19;5216694;28;20060;-77
2022/04/04 02:11:45;;;;;;;10.93;7.27;;;;;;;0.23;84.11;101605.78;5198356;28;20034;-76
2022/04/04 02:14:17;;;;;;;12.32;8.13;;;;;;;0.30;83.79;101607.78;5216569;28;20026;-75
2022/04/04 02:16:48;;;;;;;10.15;7.68;;;;;;;0.24;83.94;101595.59;5216172;28;20084;-78
2022/04/04 02:19:20;;;;;;;11.13;9.10;;;;;;;0.29;83.92;101593.19;5215878;28;20057;-76
2022/04/04 02:21:51;;;;;;;10.13;7.17;;;;;;;0.30;83.33;101597.50;5216148;28;20034;-73
2022/04/04 02:24:22;;;;;;;11.87;7.13;;;;;;;0.31;83.49;101589.88;5215998;28;20358;-75
2022/04/04 02:26:54;;;;;;;12.10;8.70;;;;;;;0.33;83.06;101578.00;5216012;28;20037;-78
2022/04/04 02:29:25;;;;;;;11.00;6.93;;;;;;;0.45;82.74;101571.63;5215705;28;20333;-74
2022/04/04 02:31:56;;;;;;;12.70;7.40;;;;;;;0.46;82.64;101571.69;5215788;28;20034;-74
2022/04/04 02:34:29;;;;;;;11.27;7.50;;;;;;;0.45;83.04;101564.81;5215423;28;20504;-74
2022/04/04 02:37:00;;;;;;;14.68;7.80;;;;;;;0.49;82.68;101561.53;5215535;28;20041;-74
2022/04/04 02:39:31;;;;;;;14.07;7.23;;;;;;;0.48;83.04;101539.28;5218257;28;20025;-75
2022/04/04 02:42:03;;;;;;;11.20;7.10;;;;;;;0.47;82.81;101540.09;5225342;28;20050;-73
2022/04/04 02:44:35;;;;;;;11.33;6.80;;;;;;;0.54;82.67;101546.34;5218576;28;20033;-75
2022/04/04 02:47:07;;;;;;;10.10;6.83;;;;;;;0.53;82.56;101537.78;5239024;28;20030;-75
2022/04/04 02:49:39;;;;;;;9.32;6.38;;;;;;;0.59;82.68;101532.00;5239793;28;20014;-76
2022/04/04 02:52:10;;;;;;;11.27;6.20;;;;;;;0.64;82.10;101534.75;5229998;28;20040;-74
2022/04/04 02:54:41;;;;;;;10.33;6.90;;;;;;;0.61;82.42;101526.94;5226799;28;20528;-75
2022/04/04 02:57:16;;;;;;;11.90;7.67;;;;;;;0.64;82.50;101517.66;5226747;28;20034;-76
2022/04/04 02:59:48;;;;;;;12.05;7.25;;;;;;;0.62;82.33;101510.75;5225568;28;20022;-74
2022/04/04 03:02:19;;;;;;;12.90;6.53;;;;;;;0.62;82.31;101509.03;5236091;28;20068;-75
2022/04/04 03:04:51;;;;;;;13.57;7.80;;;;;;;0.63;82.24;101497.97;5240043;28;20281;-73
2022/04/04 03:07:22;;;;;;;11.23;6.63;;;;;;;0.70;82.12;101505.06;5223372;28;20052;-75
2022/04/04 03:09:53;;;;;;;15.40;7.10;;;;;;;0.77;82.12;101495.91;5218554;28;20042;-77
2022/04/04 03:12:24;;;;;;;8.83;6.90;;;;;;;0.79;82.22;101490.84;5240295;28;20014;-78
2022/04/04 03:14:56;;;;;;;10.63;6.53;;;;;;;0.80;81.85;101482.34;5242665;28;20033;-76
2022/04/04 03:17:27;;;;;;;11.63;6.90;;;;;;;0.78;82.18;101476.28;5243352;28;20053;-75
2022/04/04 03:19:59;;;;;;;9.40;6.33;;;;;;;0.80;82.34;101479.78;5242692;28;20040;-75
2022/04/04 03:22:31;;;;;;;10.45;6.50;;;;;;;0.85;82.14;101466.31;5242454;28;20033;-76
2022/04/04 03:25:02;;;;;;;9.47;6.67;;;;;;;0.90;82.37;101469.94;5242293;28;20081;-77
2022/04/04 03:27:35;;;;;;;11.30;6.37;;;;;;;0.87;82.35;101458.66;5241921;28;20086;-75
2022/04/04 03:30:11;;;;;;;10.75;6.22;;;;;;;0.88;82.82;101458.69;5242664;28;20009;-74
2022/04/04 03:32:42;;;;;;;9.27;6.40;;;;;;;0.86;82.84;101442.38;5242799;28;20033;-79
2022/04/04 03:35:14;;;;;;;9.63;6.10;;;;;;;0.91;82.74;101452.81;5241558;28;20044;-75
2022/04/04 03:37:49;;;;;;;10.07;7.25;;;;;;;0.87;83.21;101440.69;5241083;28;20038;-76
2022/04/04 03:40:21;;;;;;;10.35;6.78;;;;;;;0.93;83.23;101435.78;5242119;28;20118;-79
2022/04/04 03:42:55;;;;;;;13.68;6.25;;;;;;;0.99;83.27;101436.00;5242252;28;20041;-76
2022/04/04 03:45:27;;;;;;;12.52;7.60;;;;;;;1.08;82.92;101426.09;5242861;28;20018;-77
2022/04/04 03:47:59;;;;;;;12.43;6.13;;;;;;;1.11;83.04;101422.72;5242036;28;20030;-76
2022/04/04 03:50:31;;;;;;;10.97;6.33;;;;;;;1.18;82.63;101421.28;5242115;28;20072;-78
2022/04/04 03:53:03;;;;;;;9.47;6.83;;;;;;;1.14;82.65;101415.16;5240848;28;20016;-77
2022/04/04 03:55:38;;;;;;;13.60;7.47;;;;;;;1.18;83.07;101411.00;5240780;28;20041;-74
2022/04/04 03:58:10;;;;;;;11.35;6.85;;;;;;;1.23;82.97;101409.47;5241626;28;20053;-78
2022/04/04 04:00:41;;;;;;;11.10;6.83;;;;;;;1.22;82.98;101395.78;5241826;28;20030;-75
2022/04/04 04:03:13;;;;;;;10.20;6.73;;;;;;;1.24;83.08;101406.97;5241392;28;20014;-78
2022/04/04 04:05:44;;;;;;;12.23;6.67;;;;;;;1.26;82.78;101399.31;5240708;28;20053;-74
2022/04/04 04:08:15;;;;;;;11.87;6.60;;;;;;;1.26;83.08;101387.34;5240506;28;20113;-76
2022/04/04 04:10:47;;;;;;;11.13;7.30;;;;;;;1.30;82.91;101384.88;5241052;28;20036;-76
2022/04/04 04:13:18;;;;;;;14.77;7.60;;;;;;;1.33;83.02;101380.72;5240361;28;20041;-79
2022/04/04 04:15:49;;;;;;;10.60;7.13;;;;;;;1.32;83.26;101372.94;5222340;28;20030;-79
2022/04/04 04:18:21;;;;;;;12.03;7.00;;;;;;;1.34;83.26;101382.47;5240878;28;20042;-82
2022/04/04 04:20:52;;;;;;;13.53;7.20;;;;;;;1.34;83.61;101374.78;5222750;28;20097;-76
2022/04/04 04:23:23;;;;;;;10.37;7.50;;;;;;;1.43;83.38;101354.53;5241886;28;20030;-76
2022/04/04 04:25:55;;;;;;;13.50;7.93;;;;;;;1.34;83.53;101364.50;5240714;28;20094;-74
2022/04/04 04:28:26;;;;;;;12.20;7.50;;;;;;;1.40;83.85;101353.53;5240541;28;20018;-75
2022/04/04 04:30:59;;;;;;;11.30;7.67;;;;;;;1.38;83.73;101353.47;5239766;28;20403;-73
2022/04/04 04:33:30;;;;;;;11.50;7.68;;;;;;;1.42;83.67;101347.63;5239720;28;20037;-75
2022/04/04 04:36:02;;;;;;;14.37;8.07;;;;;;;1.47;83.75;101344.38;5240838;28;20026;-76
2022/04/04 04:38:34;;;;;;;11.00;8.00;;;;;;;1.52;83.86;101337.69;5241261;28;20061;-76
2022/04/04 04:41:05;;;;;;;13.90;8.30;;;;;;;1.60;83.53;101336.22;5241498;28;20017;-75
2022/04/04 04:43:37;;;;;;;10.03;7.80;;;;;;;1.54;83.49;101323.19;5243107;28;20034;-77
2022/04/04 04:46:08;;;;;;;15.10;7.70;;;;;;;1.58;83.43;101319.91;5241047;28;20081;-79
2022/04/04 04:48:39;;;;;;;11.50;8.00;;;;;;;1.64;83.10;101320.06;5241010;28;20026;-77
2022/04/04 04:51:11;;;;;;;14.97;7.77;;;;;;;1.66;82.89;101325.25;5223158;28;20050;-79
2022/04/04 04:53:42;;;;;;;10.90;7.53;;;;;;;1.62;83.46;101309.75;5240320;28;20037;-75
2022/04/04 04:56:14;;;;;;;15.53;8.10;;;;;;;1.64;83.55;101312.34;5240415;28;20045;-76
2022/04/04 04:58:45;;;;;;;14.47;8.70;;;;;;;1.69;83.32;101308.25;5241686;28;20050;-76
2022/04/04 05:01:17;;;;;;;13.83;7.47;;;;;;;1.72;83.34;101300.63;5240474;28;20030;-79
2022/04/04 05:03:50;;;;;;;14.43;8.20;;;;;;;1.75;83.01;101287.88;5238796;28;20010;-77
2022/04/04 05:06:21;;;;;;;13.30;9.27;;;;;;;1.86;82.57;101290.78;5221214;28;20041;-76
2022/04/04 05:08:55;;;;;;;16.17;8.73;;;;;;;1.91;82.23;101298.63;5239607;28;20333;-77
2022/04/04 05:11:27;;;;;;;16.73;8.55;;;;;;;1.91;82.42;101283.22;5216559;28;20033;-79
2022/04/04 05:13:58;;;;;;;12.27;7.73;;;;;;;1.95;82.26;101285.06;5237778;28;20170;-77
2022/04/04 05:16:29;;;;;;;13.67;8.83;;;;;;;1.98;82.27;101273.16;5240340;28;20300;-78
2022/04/04 05:19:01;;;;;;;11.97;8.73;;;;;;;1.99;81.86;101268.88;5240535;28;20041;-77
2022/04/04 05:21:34;;;;;;;12.50;8.43;;;;;;;1.99;82.48;101256.91;5239696;28;20050;-78
2022/04/04 05:24:05;;;;;;;;;;;;;;;2.06;81.93;101252.84;5223557;28;20030;-74
2022/04/04 05:26:37;;;;;;;12.30;9.00;;;;;;;2.09;81.71;101258.03;5222555;28;19902;-78
2022/04/04 05:29:08;;;;;;;12.93;9.27;;;;;;;2.12;81.82;101259.84;5221668;28;20113;-78
2022/04/04 05:31:40;;;;;;;13.60;9.60;;;;;;;2.15;81.75;101221.34;5239277;28;20022;-79
2022/04/04 05:34:12;;;;;;;13.17;9.07;;;;;;;2.19;81.75;101233.50;5224406;28;20030;-76
2022/04/04 05:36:43;;;;;;;14.87;9.27;;;;;;;2.23;81.63;101221.56;5239473;28;20034;-78
2022/04/04 05:39:14;;;;;;;15.87;9.30;;;;;;;2.23;81.97;101225.00;5240993;28;20057;-78
2022/04/04 05:41:46;;;;;;;12.20;7.47;;;;;;;2.25;81.67;101231.06;5239613;28;20050;-79
2022/04/04 05:44:18;;;;;;;16.47;9.70;;;;;;;2.28;81.37;101222.56;5219924;28;20045;-79
2022/04/04 05:46:49;;;;;;;13.50;8.13;;;;;;;2.25;81.71;101217.34;5233873;28;20030;-77
2022/04/04 05:49:20;;;;;;;13.77;8.90;;;;;;;2.31;81.36;101218.38;5231557;28;20045;-79
2022/04/04 05:51:52;;;;;;;12.70;8.73;;;;;;;2.34;80.76;101205.59;5223731;28;20041;-79
2022/04/04 05:54:23;;;;;;;13.77;8.87;;;;;;;2.40;80.76;101217.78;5237214;28;20033;-78
2022/04/04 05:56:54;;;;;;;12.13;9.13;;;;;;;2.43;81.03;101198.97;5234888;28;20110;-78
2022/04/04 05:59:26;;;;;;;12.37;9.63;;;;;;;2.43;80.46;101187.00;5237105;28;20026;-77
2022/04/04 06:01:57;;;;;;;11.93;8.73;;;;;;;2.49;80.28;101192.28;5236209;28;20032;-79
2022/04/04 06:04:29;;;;;;;16.67;9.20;;;;;;;2.54;80.20;101190.72;5239606;28;20022;-77
2022/04/04 06:07:02;;;;;;;14.07;9.10;;;;;;;2.60;80.25;101184.84;5239192;28;20030;-78
2022/04/04 06:09:33;;;;;;;14.50;8.75;;;;;;;2.64;80.01;101180.66;5239426;28;20034;-78
2022/04/04 06:12:05;;;;;;;13.07;9.13;;;;;;;2.64;79.78;101186.69;5239445;28;20120;-77
2022/04/04 06:14:36;;;;;;;12.27;8.70;;;;;;;2.72;79.40;101174.88;5239562;28;20097;-78
2022/04/04 06:17:08;;;;;;;13.27;9.00;;;;;;;2.72;79.20;101163.69;5223284;28;20049;-77
2022/04/04 06:19:41;;;;;;;12.67;9.37;;;;;;;2.76;79.35;101175.81;5240078;28;20065;-78
2022/04/04 06:22:13;;;;;;;11.43;8.65;;;;;;;2.80;78.68;101172.50;5219688;28;20060;-79
2022/04/04 06:24:44;;;;;;;12.77;9.37;;;;;;;2.84;78.62;101158.84;5221214;28;20539;-78
2022/04/04 06:27:17;;;;;;;14.73;9.03;;;;;;;2.94;78.37;101159.09;5238357;28;20064;-77
2022/04/04 06:29:49;;;;;;;15.35;9.52;;;;;;;2.94;78.15;101152.22;5238578;28;20022;-78
2022/04/04 06:32:21;;;;;;;13.57;10.20;;;;;;;2.99;77.73;101149.78;5238858;28;20089;-78
2022/04/04 06:34:54;;;;;;;13.98;9.68;;;;;;;3.04;77.67;101148.16;5238812;28;20038;-77
2022/04/04 06:37:26;;;;;;;14.37;10.20;;;;;;;3.14;76.94;101137.25;5238953;28;20167;-77
2022/04/04 06:39:57;;;;;;;15.57;9.97;;;;;;;3.26;77.03;101136.66;5237700;28;20288;-79
2022/04/04 06:42:31;;;;;;;13.13;10.53;;;;;;;3.41;76.34;101134.44;5239598;28;20069;-77
2022/04/04 06:45:04;;;;;;;14.90;10.45;;;;;;;3.49;75.33;101124.28;5238820;28;20062;-79
2022/04/04 06:47:36;;;;;;;13.00;8.50;;;;;;;3.53;75.67;101126.09;5238602;28;20069;-78
2022/04/04 06:50:08;;;;;;;14.48;9.27;;;;;;;3.62;75.19;101112.53;5238025;28;20188;-78
2022/04/04 06:52:40;;;;;;;12.90;8.50;;;;;;;3.62;75.01;101112.53;5239471;28;20057;-77
2022/04/04 06:55:12;;;;;;;12.60;9.15;;;;;;;3.65;75.29;101099.69;5238500;28;20300;-80
2022/04/04 06:57:43;;;;;;;18.90;8.40;;;;;;;3.78;74.70;101100.81;5221921;28;20053;-77
2022/04/04 07:00:16;;;;;;;12.77;7.83;;;;;;;3.90;74.20;101090.75;5239719;28;20030;-78
2022/04/04 07:02:47;;;;;;;;;;;;;;;4.05;74.14;101086.72;5238536;28;20079;-75
2022/04/04 07:05:20;;;;;;;14.27;8.25;;;;;;;4.05;72.95;101109.94;5233144;28;19921;-77
2022/04/04 07:07:51;;;;;;;;;;;;;;;4.17;72.32;101094.69;5239969;28;20082;-78
2022/04/04 07:10:23;;;;;;;13.20;9.18;;;;;;;4.17;72.57;101084.38;5239359;28;19905;-79
2022/04/04 07:12:54;;;;;;;18.53;9.13;;;;;;;4.30;72.48;101080.28;5237209;28;20074;-78
2022/04/04 07:15:26;;;;;;;13.90;9.00;;;;;;;4.37;71.91;101074.41;5221603;28;20033;-78
2022/04/04 07:17:57;;;;;;;14.07;9.53;;;;;;;4.40;71.82;101065.88;5238877;28;20021;-78
2022/04/04 07:20:28;;;;;;;12.37;8.37;;;;;;;4.33;71.12;101064.84;5239291;28;20041;-78
2022/04/04 07:23:00;;;;;;;12.83;8.23;;;;;;;4.31;71.45;101058.81;5238304;28;20034;-78
2022/04/04 07:25:32;;;;;;;14.30;8.15;;;;;;;4.31;71.44;101044.19;5238846;28;20014;-78
2022/04/04 07:28:03;;;;;;;13.40;8.60;;;;;;;4.33;71.14;101049.38;5238035;28;20053;-78
2022/04/04 07:30:35;;;;;;;12.90;8.27;;;;;;;4.38;70.91;101037.44;5238438;28;20045;-76
2022/04/04 07:33:08;;;;;;;11.77;8.40;;;;;;;4.43;70.76;101046.13;5238680;28;20014;-79
2022/04/04 07:35:40;;;;;;;17.33;9.20;;;;;;;4.47;70.91;101047.03;5236644;28;20022;-77
2022/04/04 07:38:14;;;;;;;12.30;7.77;;;;;;;4.47;70.67;101035.00;5236962;28;20053;-77
2022/04/04 07:40:46;;;;;;;11.40;8.10;;;;;;;4.52;70.46;101033.38;5237514;28;20026;-78
2022/04/04 07:43:17;;;;;;;13.93;7.90;;;;;;;4.63;70.96;101014.59;5239148;28;20069;-79
2022/04/04 07:45:49;;;;;;;15.75;7.05;;;;;;;4.70;70.17;101009.53;5237107;28;20256;-79
2022/04/04 07:48:21;;;;;;;11.60;7.77;;;;;;;4.72;70.06;101032.81;5223000;28;20076;-79
2022/04/04 07:50:52;;;;;;;16.00;8.73;;;;;;;4.74;70.58;101002.72;5224071;28;20093;-77
2022/04/04 07:53:24;;;;;;;12.07;7.83;;;;;;;4.77;70.33;101014.81;5224564;28;20061;-78
2022/04/04 07:55:55;;;;;;;11.27;8.23;;;;;;;4.87;69.67;101001.16;5242278;28;20069;-79
2022/04/04 07:58:26;;;;;;;11.43;9.00;;;;;;;5.00;69.39;100997.03;5241596;28;20018;-79
2022/04/04 08:00:59;;;;;;;12.93;7.50;;;;;;;5.04;69.20;100986.78;5240867;28;20045;-78
2022/04/04 08:03:30;;;;;;;13.23;8.38;;;;;;;5.11;69.27;100991.16;5240171;28;20033;-78
2022/04/04 08:06:02;;;;;;;13.93;9.03;;;;;;;5.17;68.90;100973.97;5239802;28;20104;-77
2022/04/04 08:08:33;;;;;;;10.77;8.47;;;;;;;5.17;68.79;100969.72;5239933;28;20037;-79
2022/04/04 08:11:05;;;;;;;15.30;8.93;;;;;;;5.30;67.76;100970.72;5222952;28;20212;-77
2022/04/04 08:13:42;;;;;;;13.40;8.27;;;;;;;5.49;67.92;100974.38;5240972;28;20020;-77
2022/04/04 08:16:13;;;;;;;13.63;8.30;;;;;;;5.66;67.61;100956.44;5240516;28;20048;-77
2022/04/04 08:18:45;;;;;;;14.90;8.00;;;;;;;5.62;67.32;100949.53;5216064;28;20034;-78
2022/04/04 08:21:17;;;;;;;22.43;8.33;;;;;;;5.77;66.32;100952.25;5233994;28;20030;-77
2022/04/04 08:23:48;;;;;;;14.30;7.57;;;;;;;5.84;65.92;100940.22;5237261;28;20197;-78
2022/04/04 08:26:19;;;;;;;15.43;8.30;;;;;;;5.95;65.62;100961.03;5235127;28;20029;-78
2022/04/04 08:28:51;;;;;;;19.77;7.57;;;;;;;5.90;65.31;100936.84;5216889;28;20029;-78
2022/04/04 08:31:22;;;;;;;12.20;7.63;;;;;;;6.02;65.02;100947.31;5240516;28;20427;-79
2022/04/04 08:33:54;;;;;;;12.63;7.23;;;;;;;6.13;64.27;100930.16;5223060;28;20010;-78
2022/04/04 08:36:25;;;;;;;23.67;8.10;;;;;;;6.19;63.74;100927.63;5222993;28;20025;-77
2022/04/04 08:38:57;;;;;;;20.60;7.53;;;;;;;6.20;63.85;100916.44;5232347;28;20377;-77
2022/04/04 08:41:31;;;;;;;19.57;8.23;;;;;;;6.25;63.75;100933.69;5229072;28;20045;-77
2022/04/04 08:44:03;;;;;;;19.25;6.95;;;;;;;6.37;62.85;100907.91;5222087;28;20090;-77
2022/04/04 08:46:35;;;;;;;18.58;7.88;;;;;;;6.36;62.56;100912.22;5235600;28;20005;-78
2022/04/04 08:49:06;;;;;;;20.63;7.97;;;;;;;6.50;62.48;100898.47;5234524;28;20080;-76
2022/04/04 08:51:38;;;;;;;25.33;7.60;;;;;;;6.45;62.16;100898.44;5219162;28;20152;-78
2022/04/04 08:54:09;;;;;;;20.37;7.20;;;;;;;6.34;62.27;100907.88;5238191;28;20053;-78
2022/04/04 08:56:42;;;;;;;29.00;7.33;;;;;;;6.37;62.53;100908.75;5220761;28;20038;-79
2022/04/04 08:59:14;;;;;;;18.15;7.30;;;;;;;6.37;62.34;100888.03;5238418;28;20037;-76
2022/04/04 09:01:46;;;;;;;19.13;8.13;;;;;;;6.33;62.32;100891.47;5238706;28;20086;-76
2022/04/04 09:04:18;;;;;;;26.48;8.93;;;;;;;6.37;63.01;100872.50;5238646;28;20033;-77
2022/04/04 09:06:54;;;;;;;28.53;8.23;;;;;;;6.32;63.47;100896.66;5237907;28;20026;-77
2022/04/04 09:09:37;;;;;;;22.48;7.97;;;;;;;6.15;63.97;100889.66;5236637;28;20030;-79
2022/04/04 09:12:11;;;;;;;32.08;8.02;;;;;;;6.14;64.77;100876.69;5234601;28;20098;-80
2022/04/04 09:14:46;;;;;;;29.25;7.82;;;;;;;6.03;65.57;100867.09;5213075;28;20169;-77
2022/04/04 09:17:21;;;;;;;28.40;9.32;;;;;;;5.98;66.09;100867.94;5235689;28;20605;-76
2022/04/04 09:19:52;;;;;;;24.27;8.68;;;;;;;5.97;66.19;100874.84;5238649;28;20018;-79
2022/04/04 09:22:25;;;;;;;22.40;9.27;;;;;;;6.04;66.51;100831.78;5240450;28;20064;-82
2022/04/04 09:24:59;;;;;;;20.77;7.32;;;;;;;6.02;66.66;100844.69;5223083;28;20096;-83
2022/04/04 09:27:36;;;;;;;32.10;7.93;;;;;;;5.99;67.20;100870.56;5239579;28;20018;-79
2022/04/04 09:30:19;;;;;;;29.25;8.98;;;;;;;6.10;67.45;100842.16;5222385;28;20069;-80
2022/04/04 09:32:51;;;;;;;27.98;8.82;;;;;;;5.91;69.02;100848.00;5238349;28;20018;-80
2022/04/04 09:35:28;;;;;;;23.48;8.75;;;;;;;5.85;70.16;100836.78;5221988;28;20029;-79
2022/04/04 09:37:59;;;;;;;20.75;9.75;;;;;;;5.76;71.02;100841.00;5239693;28;20073;-77
2022/04/04 09:40:32;;;;;;;24.67;9.87;;;;;;;5.49;72.24;100858.03;5240440;28;20097;-80
2022/04/04 09:43:04;;;;;;;17.90;9.43;;;;;;;5.40;75.27;100842.44;5223120;28;20061;-79
2022/04/04 09:45:35;;;;;;;17.47;8.23;;;;;;;5.33;75.05;100833.75;5239338;28;20034;-81
2022/04/04 09:48:08;;;;;;;15.20;10.73;;;;;;;5.35;75.48;100832.03;5240184;28;20041;-80
2022/04/04 09:50:47;;;;;;;15.35;9.38;;;;;;;5.27;75.58;100831.97;5240456;28;20041;-77
2022/04/04 09:53:24;;;;;;;15.15;10.00;;;;;;;5.25;76.65;100828.50;5240523;28;20137;-79
2022/04/04 09:55:57;;;;;;;13.25;9.13;;;;;;;5.21;76.73;100836.22;5205288;28;20038;-80
2022/04/04 09:58:33;;;;;;;15.57;9.50;;;;;;;5.19;77.03;100831.03;5240146;28;20045;-81
2022/04/04 10:01:05;;;;;;;16.85;9.23;;;;;;;5.20;78.47;100826.72;5205770;28;20037;-79
2022/04/04 10:03:38;;;;;;;16.10;9.30;;;;;;;5.18;78.69;100815.50;5240531;28;20444;-80
2022/04/04 10:06:12;;;;;;;12.23;8.77;;;;;;;5.09;78.16;100821.47;5240225;28;20014;-81
2022/04/04 10:08:45;;;;;;;14.73;9.02;;;;;;;5.04;80.03;100817.94;5222525;28;20068;-81
2022/04/04 10:11:17;;;;;;;11.05;9.15;;;;;;;5.04;79.72;100808.50;5240089;28;20058;-81
2022/04/04 10:13:52;;;;;;;14.70;11.33;;;;;;;5.10;81.11;100805.09;5240217;28;20036;-81
2022/04/04 10:16:24;;;;;;;15.40;10.18;;;;;;;5.09;81.30;100798.22;5223389;28;20038;-81
2022/04/04 10:18:57;;;;;;;17.73;9.93;;;;;;;5.02;81.53;100807.59;5220280;28;20022;-79
2022/04/04 10:21:28;;;;;;;12.15;10.00;;;;;;;4.94;82.85;100798.91;5240384;28;20018;-80
2022/04/04 10:24:01;;;;;;;18.40;10.77;;;;;;;4.90;84.18;100800.59;5240681;28;20102;-81
2022/04/04 10:26:34;;;;;;;14.50;11.40;;;;;;;4.87;84.81;100799.69;5239916;28;20044;-76
2022/04/04 10:29:09;;;;;;;14.07;12.25;;;;;;;4.73;86.16;100800.41;5238733;28;20021;-80
2022/04/04 10:31:48;;;;;;;13.15;10.43;;;;;;;4.77;86.33;100797.88;5239499;28;20076;-77
2022/04/04 10:34:24;;;;;;;16.15;12.57;;;;;;;4.74;87.40;100789.22;5223328;28;20018;-81
2022/04/04 10:37:07;;;;;;;17.42;11.68;;;;;;;4.79;88.23;100791.00;5239826;28;20026;-81
2022/04/04 10:39:45;;;;;;;17.55;13.15;;;;;;;4.72;89.39;100797.81;5221101;28;20037;-80
2022/04/04 10:42:27;;;;;;;14.43;12.20;;;;;;;4.63;91.12;100800.28;5239856;28;20068;-83
2022/04/04 10:45:05;;;;;;;15.45;13.73;;;;;;;4.67;92.62;100790.00;5222853;28;20109;-81
2022/04/04 10:47:42;;;;;;;18.20;13.70;;;;;;;4.65;92.67;100789.09;5238799;28;20030;-84
2022/04/04 10:50:25;;;;;;;20.65;13.20;;;;;;;4.55;93.46;100797.59;5221565;28;20051;-81
2022/04/04 10:53:01;;;;;;;;;;;;;;;4.59;93.43;100794.22;5238424;28;20045;-86
2022/04/04 10:55:41;;;;;;;18.05;13.98;;;;;;;4.46;95.27;100789.75;5218661;28;19921;-85
2022/04/04 10:58:16;;;;;;;13.77;12.38;;;;;;;4.48;95.64;100775.16;5219430;28;20040;-84
2022/04/04 11:01:29;;;;;;;20.23;15.65;;;;;;;4.60;97.56;100772.69;5221553;28;20042;-84
2022/04/04 11:04:00;;;;;;;16.48;14.25;;;;;;;4.53;96.77;100783.81;5141257;29;20066;-79
2022/04/04 11:09:32;;;;;;;15.93;14.20;;;;;;;4.53;97.79;100764.03;5151992;29;20031;-85
2022/04/04 11:12:12;;;;;;;16.45;14.27;;;;;;;4.51;98.90;100767.47;5150961;29;20036;-80
2022/04/04 11:14:54;;;;;;;19.33;15.18;;;;;;;4.54;99.73;100758.03;5152593;29;20039;-82
2022/04/04 11:17:36;;;;;;;16.10;13.95;;;;;;;4.44;99.58;100757.88;5155366;29;20023;-81
2022/04/04 11:20:31;;;;;;;17.42;13.80;;;;;;;4.41;99.00;100752.69;5154381;29;20103;-79
2022/04/04 11:23:09;;;;;;;19.23;14.75;;;;;;;4.38;99.76;100758.69;5154407;29;20055;-82
2022/04/04 11:25:52;;;;;;;17.02;14.80;;;;;;;4.40;100.00;100756.13;5152582;29;20076;-81
2022/04/04 11:28:31;;;;;;;15.00;12.43;;;;;;;4.34;99.54;100742.28;5154439;29;20083;-80
2022/04/04 11:31:07;;;;;;;14.50;12.95;;;;;;;4.32;98.98;100744.00;5153246;29;20053;-82
2022/04/04 11:33:47;;;;;;;17.65;12.40;;;;;;;4.31;99.01;100737.09;5154406;29;20166;-86
2022/04/04 11:36:28;;;;;;;17.25;14.68;;;;;;;4.34;100.00;100749.16;5156280;29;20042;-83
2022/04/04 11:39:03;;;;;;;19.30;16.10;;;;;;;4.34;100.00;100738.84;5158747;29;20020;-83
2022/04/04 11:41:46;;;;;;;18.45;16.10;;;;;;;4.34;100.00;100733.69;5242229;28;20030;-81
2022/04/04 11:44:25;;;;;;;19.88;15.32;;;;;;;4.31;100.00;100728.50;5240347;28;20018;-81
2022/04/04 11:47:08;;;;;;;16.27;13.27;;;;;;;4.26;100.00;100748.22;5216966;28;20038;-79
2022/04/04 11:49:44;;;;;;;16.80;14.55;;;;;;;4.21;100.00;100732.66;5234689;28;20030;-82
2022/04/04 11:52:18;;;;;;;17.67;15.38;;;;;;;4.20;100.00;100724.06;5232495;28;20037;-77
2022/04/04 11:54:50;;;;;;;14.85;13.13;;;;;;;4.10;99.58;100719.63;5230426;28;20030;-83
2022/04/04 11:57:22;;;;;;;18.42;16.52;;;;;;;4.08;100.00;100723.91;5231738;28;20034;-84